createdAt,value
2023-05-25T00:00:02.932Z,75.39
2023-05-25T00:01:03.521Z,75.30
2023-05-25T00:02:02.838Z,74.82
2023-05-25T00:03:02.919Z,75.20
2023-05-25T00:04:02.872Z,74.73
2023-05-25T00:05:02.671Z,74.63
2023-05-25T00:06:02.634Z,74.53
2023-05-25T00:07:02.580Z,73.48
2023-05-25T00:08:02.534Z,73.54
2023-05-25T00:09:02.494Z,73.29
2023-05-25T00:10:02.499Z,73.10
2023-05-25T00:11:02.406Z,74.02
2023-05-25T00:12:02.360Z,73.35
2023-05-25T00:13:02.318Z,73.25
2023-05-25T00:14:02.280Z,73.25
2023-05-25T00:15:02.407Z,72.97
2023-05-25T00:16:02.187Z,73.83
2023-05-25T00:17:02.198Z,74.40
2023-05-25T00:18:02.168Z,74.40
2023-05-25T00:19:02.055Z,74.30
2023-05-25T00:20:02.056Z,74.78
2023-05-25T00:21:01.990Z,74.78
2023-05-25T00:22:01.929Z,74.21
2023-05-25T00:23:01.874Z,74.40
2023-05-25T00:24:01.844Z,74.78
2023-05-25T00:25:01.815Z,74.88
2023-05-25T00:26:01.755Z,74.88
2023-05-25T00:27:01.732Z,75.45
2023-05-25T00:28:01.689Z,76.31
2023-05-25T00:29:01.621Z,75.35
2023-05-25T00:30:01.577Z,75.45
2023-05-25T00:31:01.574Z,75.64
2023-05-25T00:32:01.494Z,75.26
2023-05-25T00:33:01.649Z,74.78
2023-05-25T00:34:01.412Z,75.16
2023-05-25T00:35:01.360Z,74.49
2023-05-25T00:36:01.315Z,74.30
2023-05-25T00:37:01.273Z,74.98
2023-05-25T00:38:01.237Z,74.02
2023-05-25T00:39:01.183Z,74.02
2023-05-25T00:40:01.140Z,73.92
2023-05-25T00:41:01.090Z,73.73
2023-05-25T00:42:01.041Z,73.25
2023-05-25T00:43:01.008Z,72.49
2023-05-25T00:44:00.984Z,72.39
2023-05-25T00:45:00.924Z,72.39
2023-05-25T00:46:00.899Z,72.20
2023-05-25T00:47:00.841Z,72.20
2023-05-25T00:48:00.806Z,72.87
2023-05-25T00:49:00.739Z,72.58
2023-05-25T00:50:00.707Z,73.44
2023-05-25T00:51:00.684Z,73.44
2023-05-25T00:52:00.602Z,73.44
2023-05-25T00:53:00.564Z,72.30
2023-05-25T00:54:00.522Z,72.68
2023-05-25T00:55:00.485Z,72.78
2023-05-25T00:56:00.426Z,72.68
2023-05-25T00:57:00.408Z,72.78
2023-05-25T00:58:00.343Z,72.58
2023-05-25T00:59:00.296Z,71.72
2023-05-25T01:00:00.277Z,72.01
2023-05-25T01:01:00.228Z,72.78
2023-05-25T01:02:00.229Z,72.62
2023-05-25T01:03:00.251Z,72.58
2023-05-25T01:04:00.131Z,72.43
2023-05-25T01:05:00.057Z,72.20
2023-05-25T01:05:59.985Z,72.01
2023-05-25T01:06:59.943Z,71.95
2023-05-25T01:07:59.901Z,72.01
2023-05-25T01:08:59.868Z,71.25
2023-05-25T01:09:59.826Z,72.01
2023-05-25T01:10:59.768Z,71.82
2023-05-25T01:11:59.723Z,71.82
2023-05-25T01:12:59.685Z,71.82
2023-05-25T01:13:59.636Z,71.47
2023-05-25T01:14:59.613Z,71.38
2023-05-25T01:15:59.633Z,70.81
2023-05-25T01:16:59.533Z,70.71
2023-05-25T01:17:59.664Z,70.61
2023-05-25T01:18:59.420Z,70.42
2023-05-25T01:20:09.732Z,70.71
2023-05-25T01:20:59.407Z,71.09
2023-05-25T01:21:59.286Z,71.09
2023-05-25T01:22:59.242Z,70.61
2023-05-25T01:23:59.221Z,70.42
2023-05-25T01:24:59.158Z,70.71
2023-05-25T01:25:59.113Z,70.52
2023-05-25T01:26:59.061Z,70.90
2023-05-25T01:27:59.025Z,71.57
2023-05-25T01:28:58.978Z,71.95
2023-05-25T01:29:58.949Z,71.25
2023-05-25T01:30:58.889Z,72.05
2023-05-25T01:31:58.906Z,71.82
2023-05-25T01:32:58.848Z,72.58
2023-05-25T01:33:58.767Z,72.58
2023-05-25T01:34:58.714Z,73.39
2023-05-25T01:35:58.712Z,73.73
2023-05-25T01:36:58.651Z,73.58
2023-05-25T01:37:58.587Z,73.73
2023-05-25T01:38:58.561Z,73.83
2023-05-25T01:39:58.493Z,74.53
2023-05-25T01:40:58.474Z,73.44
2023-05-25T01:41:58.510Z,73.67
2023-05-25T01:42:58.374Z,73.54
2023-05-25T01:43:58.334Z,74.53
2023-05-25T01:44:58.276Z,74.73
2023-05-25T01:45:58.266Z,73.58
2023-05-25T01:46:58.190Z,73.10
2023-05-25T01:47:58.181Z,73.29
2023-05-25T01:48:58.105Z,72.91
2023-05-25T01:49:58.055Z,72.62
2023-05-25T01:50:58.020Z,72.05
2023-05-25T01:51:58.093Z,71.95
2023-05-25T01:52:57.917Z,71.76
2023-05-25T01:53:57.875Z,72.14
2023-05-25T01:54:57.833Z,71.28
2023-05-25T01:55:57.800Z,71.38
2023-05-25T01:56:57.753Z,71.38
2023-05-25T01:57:57.722Z,71.86
2023-05-25T01:58:57.672Z,72.05
2023-05-25T01:59:57.615Z,72.33
2023-05-25T02:00:57.614Z,72.05
2023-05-25T02:01:57.579Z,71.92
2023-05-25T02:02:57.524Z,72.05
2023-05-25T02:03:57.472Z,71.76
2023-05-25T02:04:57.423Z,72.01
2023-05-25T02:05:57.354Z,71.63
2023-05-25T02:06:57.306Z,71.63
2023-05-25T02:07:57.274Z,71.82
2023-05-25T02:08:57.226Z,72.20
2023-05-25T02:09:57.200Z,72.58
2023-05-25T02:10:57.156Z,72.78
2023-05-25T02:11:57.092Z,72.81
2023-05-25T02:12:57.043Z,72.62
2023-05-25T02:13:57.001Z,72.05
2023-05-25T02:14:56.967Z,72.20
2023-05-25T02:15:56.966Z,71.95
2023-05-25T02:16:56.869Z,71.95
2023-05-25T02:17:56.944Z,72.43
2023-05-25T02:18:56.782Z,71.86
2023-05-25T02:19:56.770Z,72.05
2023-05-25T02:20:56.710Z,71.86
2023-05-25T02:21:56.656Z,71.53
2023-05-25T02:22:56.608Z,71.82
2023-05-25T02:23:56.580Z,71.92
2023-05-25T02:24:56.520Z,72.30
2023-05-25T02:25:56.494Z,72.20
2023-05-25T02:26:56.471Z,72.01
2023-05-25T02:27:56.410Z,72.58
2023-05-25T02:28:56.347Z,72.49
2023-05-25T02:29:56.304Z,73.07
2023-05-25T02:30:56.311Z,72.30
2023-05-25T02:31:56.221Z,72.68
2023-05-25T02:32:56.197Z,72.39
2023-05-25T02:33:56.126Z,72.78
2023-05-25T02:34:56.086Z,72.58
2023-05-25T02:35:56.039Z,73.07
2023-05-25T02:36:56.011Z,73.54
2023-05-25T02:37:55.994Z,73.54
2023-05-25T02:38:55.905Z,73.54
2023-05-25T02:39:55.864Z,74.21
2023-05-25T02:40:55.822Z,74.59
2023-05-25T02:41:55.787Z,74.88
2023-05-25T02:42:55.730Z,75.74
2023-05-25T02:43:55.739Z,75.64
2023-05-25T02:44:55.677Z,76.31
2023-05-25T02:45:55.601Z,77.17
2023-05-25T02:46:55.631Z,77.36
2023-05-25T02:47:55.581Z,77.78
2023-05-25T02:48:55.484Z,77.74
2023-05-25T02:49:55.428Z,78.31
2023-05-25T02:50:55.449Z,78.70
2023-05-25T02:51:55.354Z,78.99
2023-05-25T02:52:55.293Z,79.08
2023-05-25T02:53:55.249Z,79.85
2023-05-25T02:54:55.206Z,79.85
2023-05-25T02:55:55.161Z,80.32
2023-05-25T02:56:55.149Z,79.94
2023-05-25T02:57:55.075Z,81.37
2023-05-25T02:58:55.027Z,81.18
2023-05-25T02:59:54.981Z,81.27
2023-05-25T03:00:55.008Z,81.56
2023-05-25T03:01:54.900Z,82.32
2023-05-25T03:02:54.911Z,82.90
2023-05-25T03:03:54.848Z,83.28
2023-05-25T03:04:54.763Z,83.86
2023-05-25T03:05:54.721Z,84.14
2023-05-25T03:06:54.674Z,83.95
2023-05-25T03:07:54.651Z,84.62
2023-05-25T03:08:54.582Z,85.19
2023-05-25T03:09:54.554Z,85.86
2023-05-25T03:10:54.527Z,85.96
2023-05-25T03:11:54.456Z,85.58
2023-05-25T03:12:54.419Z,85.58
2023-05-25T03:13:54.381Z,86.05
2023-05-25T03:14:54.322Z,85.96
2023-05-25T03:15:54.276Z,86.24
2023-05-25T03:16:54.428Z,86.43
2023-05-25T03:17:54.238Z,86.43
2023-05-25T03:18:54.335Z,86.91
2023-05-25T03:19:54.112Z,85.91
2023-05-25T03:20:54.056Z,85.72
2023-05-25T03:21:54.027Z,86.49
2023-05-25T03:22:53.970Z,85.82
2023-05-25T03:23:53.926Z,86.01
2023-05-25T03:24:53.918Z,86.68
2023-05-25T03:25:53.869Z,87.15
2023-05-25T03:26:53.794Z,87.15
2023-05-25T03:27:53.798Z,87.25
2023-05-25T03:28:53.703Z,88.11
2023-05-25T03:29:53.666Z,87.87
2023-05-25T03:30:53.618Z,88.16
2023-05-25T03:31:53.625Z,88.07
2023-05-25T03:32:53.597Z,89.12
2023-05-25T03:33:53.516Z,89.59
2023-05-25T03:34:53.440Z,90.40
2023-05-25T03:35:53.399Z,90.40
2023-05-25T03:36:53.353Z,90.45
2023-05-25T03:37:53.310Z,90.17
2023-05-25T03:38:53.289Z,90.55
2023-05-25T03:39:53.217Z,91.31
2023-05-25T03:40:53.172Z,91.83
2023-05-25T03:41:53.143Z,91.55
2023-05-25T03:42:53.084Z,91.60
2023-05-25T03:43:53.072Z,91.83
2023-05-25T03:44:53.054Z,92.60
2023-05-25T03:45:53.031Z,92.88
2023-05-25T03:46:52.925Z,93.17
2023-05-25T03:47:52.972Z,92.97
2023-05-25T03:48:52.817Z,92.41
2023-05-25T03:49:52.784Z,92.88
2023-05-25T03:50:52.756Z,92.12
2023-05-25T03:51:52.702Z,92.74
2023-05-25T03:52:52.649Z,91.50
2023-05-25T03:53:52.604Z,92.26
2023-05-25T03:54:52.555Z,92.83
2023-05-25T03:55:52.617Z,92.36
2023-05-25T03:56:52.667Z,92.74
2023-05-25T03:57:52.437Z,93.12
2023-05-25T03:58:52.378Z,92.97
2023-05-25T03:59:52.342Z,93.17
2023-05-25T04:00:52.297Z,91.69
2023-05-25T04:01:52.247Z,91.78
2023-05-25T04:02:52.302Z,91.83
2023-05-25T04:03:52.288Z,91.93
2023-05-25T04:04:52.178Z,91.74
2023-05-25T04:05:52.067Z,92.60
2023-05-25T04:06:52.028Z,92.97
2023-05-25T04:07:51.982Z,92.31
2023-05-25T04:08:51.954Z,91.74
2023-05-25T04:09:51.897Z,91.60
2023-05-25T04:10:51.842Z,92.88
2023-05-25T04:11:51.799Z,92.65
2023-05-25T04:12:51.759Z,93.22
2023-05-25T04:13:51.710Z,92.26
2023-05-25T04:14:51.691Z,92.46
2023-05-25T04:15:51.669Z,93.07
2023-05-25T04:16:51.611Z,92.88
2023-05-25T04:17:51.588Z,91.50
2023-05-25T04:18:51.486Z,91.69
2023-05-25T04:19:51.475Z,91.78
2023-05-25T04:20:51.462Z,91.31
2023-05-25T04:21:51.364Z,92.74
2023-05-25T04:22:51.309Z,92.65
2023-05-25T04:23:51.267Z,93.07
2023-05-25T04:24:51.224Z,92.88
2023-05-25T04:25:51.184Z,92.97
2023-05-25T04:26:51.160Z,93.36
2023-05-25T04:27:51.100Z,93.46
2023-05-25T04:28:51.057Z,92.50
2023-05-25T04:29:51.008Z,91.64
2023-05-25T04:30:50.955Z,91.36
2023-05-25T04:31:50.967Z,92.41
2023-05-25T04:32:50.921Z,92.60
2023-05-25T04:33:50.845Z,92.50
2023-05-25T04:34:50.818Z,91.64
2023-05-25T04:35:50.738Z,92.02
2023-05-25T04:36:50.695Z,92.21
2023-05-25T04:37:50.655Z,91.97
2023-05-25T04:38:50.606Z,92.45
2023-05-25T04:39:50.565Z,93.12
2023-05-25T04:40:50.528Z,91.11
2023-05-25T04:41:50.476Z,91.21
2023-05-25T04:42:50.433Z,90.64
2023-05-25T04:44:05.764Z,90.45
2023-05-25T04:44:50.337Z,89.78
2023-05-25T04:45:50.305Z,89.59
2023-05-25T04:46:50.317Z,88.63
2023-05-25T04:47:50.262Z,88.73
2023-05-25T04:48:50.170Z,87.77
2023-05-25T04:49:50.122Z,88.54
2023-05-25T04:50:50.083Z,88.54
2023-05-25T04:51:50.031Z,86.72
2023-05-25T04:52:50.007Z,85.86
2023-05-25T04:53:49.948Z,85.38
2023-05-25T04:54:49.900Z,85.86
2023-05-25T04:55:49.895Z,86.91
2023-05-25T04:56:49.828Z,86.38
2023-05-25T04:57:49.770Z,86.15
2023-05-25T04:58:49.730Z,87.15
2023-05-25T04:59:49.680Z,86.47
2023-05-25T05:00:51.267Z,85.90
2023-05-25T05:01:49.729Z,85.42
2023-05-25T05:02:49.646Z,84.85
2023-05-25T05:03:49.567Z,84.28
2023-05-25T05:04:49.461Z,84.23
2023-05-25T05:05:49.424Z,83.70
2023-05-25T05:06:49.381Z,83.65
2023-05-25T05:07:49.363Z,82.65
2023-05-25T05:08:49.289Z,83.42
2023-05-25T05:09:49.247Z,83.13
2023-05-25T05:10:49.207Z,82.79
2023-05-25T05:11:49.167Z,82.79
2023-05-25T05:12:49.124Z,82.98
2023-05-25T05:13:49.089Z,82.98
2023-05-25T05:14:49.075Z,82.22
2023-05-25T05:15:48.987Z,80.98
2023-05-25T05:16:48.974Z,80.88
2023-05-25T05:17:48.927Z,80.69
2023-05-25T05:18:48.857Z,81.07
2023-05-25T05:19:48.813Z,80.92
2023-05-25T05:20:48.804Z,81.11
2023-05-25T05:21:48.743Z,80.06
2023-05-25T05:22:48.706Z,80.21
2023-05-25T05:23:48.660Z,80.25
2023-05-25T05:24:48.605Z,80.59
2023-05-25T05:25:48.556Z,80.44
2023-05-25T05:26:58.425Z,80.35
2023-05-25T05:27:48.478Z,80.82
2023-05-25T05:28:48.450Z,80.73
2023-05-25T05:29:48.381Z,80.16
2023-05-25T05:30:48.346Z,79.29
2023-05-25T05:31:48.473Z,78.63
2023-05-25T05:32:48.282Z,78.91
2023-05-25T05:33:48.244Z,78.72
2023-05-25T05:34:48.166Z,79.05
2023-05-25T05:35:48.127Z,78.47
2023-05-25T05:36:57.342Z,77.99
2023-05-25T05:37:48.036Z,77.90
2023-05-25T05:38:48.054Z,77.80
2023-05-25T05:39:47.952Z,77.70
2023-05-25T05:40:47.919Z,77.99
2023-05-25T05:41:47.864Z,77.42
2023-05-25T05:42:47.868Z,77.13
2023-05-25T05:43:47.784Z,77.33
2023-05-25T05:44:47.747Z,77.51
2023-05-25T05:45:47.694Z,76.84
2023-05-25T05:46:47.727Z,76.27
2023-05-25T05:47:47.705Z,76.75
2023-05-25T05:48:47.607Z,76.56
2023-05-25T05:49:47.538Z,75.51
2023-05-25T05:50:47.483Z,75.79
2023-05-25T05:51:47.437Z,75.73
2023-05-25T05:52:47.393Z,74.84
2023-05-25T05:53:47.352Z,75.22
2023-05-25T05:54:47.335Z,75.89
2023-05-25T05:55:48.765Z,75.41
2023-05-25T05:56:47.226Z,75.79
2023-05-25T05:57:47.183Z,76.65
2023-05-25T05:58:47.141Z,76.94
2023-05-25T05:59:47.275Z,76.94
2023-05-25T06:03:49.594Z,74.70
2023-05-25T06:04:47.360Z,75.66
2023-05-25T06:05:47.637Z,76.62
2023-05-25T06:06:47.299Z,76.52
2023-05-25T06:07:47.378Z,76.84
2023-05-25T06:08:47.198Z,76.65
2023-05-25T06:09:47.387Z,76.56
2023-05-25T06:10:47.115Z,75.51
2023-05-25T06:11:48.282Z,74.55
2023-05-25T06:12:47.226Z,75.22
2023-05-25T06:13:47.007Z,75.22
2023-05-25T06:14:47.023Z,75.26
2023-05-25T06:15:47.159Z,73.72
2023-05-25T06:16:46.985Z,73.82
2023-05-25T06:17:46.831Z,74.01
2023-05-25T06:18:46.852Z,74.01
2023-05-25T06:19:46.726Z,73.72
2023-05-25T06:20:46.949Z,73.24
2023-05-25T06:21:46.701Z,72.77
2023-05-25T06:22:46.586Z,72.77
2023-05-25T06:23:46.548Z,72.86
2023-05-25T06:24:46.682Z,72.38
2023-05-25T06:25:46.770Z,72.32
2023-05-25T06:26:46.492Z,71.71
2023-05-25T06:27:46.381Z,70.66
2023-05-25T06:28:46.512Z,70.95
2023-05-25T06:29:46.282Z,71.42
2023-05-25T06:30:46.317Z,71.33
2023-05-25T06:31:47.472Z,71.52
2023-05-25T06:32:46.373Z,72.23
2023-05-25T06:33:46.348Z,71.66
2023-05-25T06:34:46.069Z,70.31
2023-05-25T06:35:47.084Z,70.60
2023-05-25T06:36:45.994Z,70.98
2023-05-25T06:37:46.232Z,70.70
2023-05-25T06:38:45.950Z,70.60
2023-05-25T06:39:45.873Z,70.21
2023-05-25T06:40:45.985Z,69.74
2023-05-25T06:41:45.806Z,69.83
2023-05-25T06:42:45.791Z,69.64
2023-05-25T06:43:45.885Z,69.54
2023-05-25T06:44:45.653Z,69.35
2023-05-25T06:45:45.864Z,69.35
2023-05-25T06:46:45.815Z,69.83
2023-05-25T06:47:45.551Z,69.89
2023-05-25T06:48:45.628Z,70.37
2023-05-25T06:49:45.456Z,70.56
2023-05-25T06:50:45.402Z,69.60
2023-05-25T06:51:45.364Z,70.70
2023-05-25T06:52:47.702Z,70.79
2023-05-25T06:53:45.277Z,69.54
2023-05-25T06:54:45.496Z,68.97
2023-05-25T06:55:45.418Z,69.64
2023-05-25T06:56:45.149Z,69.74
2023-05-25T06:57:45.287Z,69.74
2023-05-25T06:58:45.273Z,69.54
2023-05-25T06:59:45.090Z,69.17
2023-05-25T07:00:46.003Z,68.11
2023-05-25T07:01:45.143Z,68.40
2023-05-25T07:02:44.928Z,68.30
2023-05-25T07:03:44.923Z,69.17
2023-05-25T07:04:45.004Z,69.07
2023-05-25T07:05:45.165Z,68.21
2023-05-25T07:06:44.800Z,68.11
2023-05-25T07:07:44.961Z,68.30
2023-05-25T07:08:44.645Z,68.07
2023-05-25T07:09:44.769Z,68.97
2023-05-25T07:10:44.560Z,69.07
2023-05-25T07:11:44.581Z,68.68
2023-05-25T07:12:44.501Z,68.40
2023-05-25T07:13:44.426Z,68.40
2023-05-25T07:14:44.649Z,68.11
2023-05-25T07:15:44.944Z,68.30
2023-05-25T07:16:44.369Z,67.91
2023-05-25T07:17:44.441Z,67.38
2023-05-25T07:18:44.470Z,67.38
2023-05-25T07:19:44.203Z,67.60
2023-05-25T07:20:44.324Z,66.74
2023-05-25T07:21:44.241Z,66.06
2023-05-25T07:22:44.054Z,66.06
2023-05-25T07:23:44.256Z,65.97
2023-05-25T07:24:43.992Z,65.72
2023-05-25T07:25:44.158Z,64.53
2023-05-25T07:26:44.078Z,65.01
2023-05-25T07:27:43.911Z,64.76
2023-05-25T07:28:43.892Z,64.66
2023-05-25T07:29:43.937Z,63.42
2023-05-25T07:30:43.899Z,64.28
2023-05-25T07:31:43.738Z,64.09
2023-05-25T07:32:43.933Z,64.47
2023-05-25T07:33:43.766Z,64.69
2023-05-25T07:34:43.745Z,63.73
2023-05-25T07:35:43.741Z,63.54
2023-05-25T07:36:43.475Z,63.64
2023-05-25T07:37:43.433Z,63.25
2023-05-25T07:38:43.548Z,63.25
2023-05-25T07:39:43.355Z,62.96
2023-05-25T07:40:43.570Z,62.96
2023-05-25T07:41:43.294Z,63.35
2023-05-25T07:42:43.228Z,62.96
2023-05-25T07:43:43.584Z,63.45
2023-05-25T07:44:43.144Z,63.16
2023-05-25T07:45:43.285Z,62.96
2023-05-25T07:46:43.094Z,62.77
2023-05-25T07:47:43.287Z,62.29
2023-05-25T07:48:42.981Z,62.19
2023-05-25T07:49:43.229Z,62.52
2023-05-25T07:50:42.900Z,62.23
2023-05-25T07:51:43.027Z,62.29
2023-05-25T07:52:42.822Z,62.19
2023-05-25T07:53:42.782Z,62.01
2023-05-25T07:54:42.961Z,62.01
2023-05-25T07:55:43.086Z,62.45
2023-05-25T07:56:42.652Z,63.54
2023-05-25T07:57:42.866Z,63.42
2023-05-25T07:58:42.592Z,63.32
2023-05-25T07:59:42.530Z,63.73
2023-05-25T08:00:42.890Z,63.45
2023-05-25T08:01:42.507Z,63.25
2023-05-25T08:02:42.647Z,63.35
2023-05-25T08:04:42.740Z,63.45
2023-05-25T08:05:42.424Z,62.96
2023-05-25T08:06:42.727Z,62.87
2023-05-25T08:07:42.955Z,62.58
2023-05-25T08:08:43.363Z,63.16
2023-05-25T08:09:42.127Z,63.45
2023-05-25T08:10:42.342Z,63.35
2023-05-25T08:11:42.040Z,63.35
2023-05-25T08:12:47.990Z,63.83
2023-05-25T08:13:42.160Z,63.35
2023-05-25T08:14:41.919Z,63.06
2023-05-25T08:15:42.077Z,63.38
2023-05-25T08:16:42.051Z,62.42
2023-05-25T08:17:41.993Z,62.61
2023-05-25T08:18:42.197Z,62.42
2023-05-25T08:19:41.707Z,62.04
2023-05-25T08:20:41.921Z,62.42
2023-05-25T08:21:41.658Z,62.32
2023-05-25T08:22:41.595Z,62.52
2023-05-25T08:23:41.581Z,62.07
2023-05-25T08:24:42.867Z,60.72
2023-05-25T08:25:41.465Z,60.98
2023-05-25T08:26:53.265Z,61.08
2023-05-25T08:27:41.385Z,61.36
2023-05-25T08:28:41.348Z,61.65
2023-05-25T08:29:41.316Z,62.23
2023-05-25T08:30:42.943Z,62.42
2023-05-25T08:31:41.228Z,62.07
2023-05-25T08:32:41.289Z,62.26
2023-05-25T08:33:41.150Z,61.20
2023-05-25T08:34:41.098Z,61.58
2023-05-25T08:35:41.077Z,61.11
2023-05-25T08:36:41.305Z,61.20
2023-05-25T08:37:40.979Z,61.01
2023-05-25T08:38:41.120Z,61.20
2023-05-25T08:39:40.945Z,61.20
2023-05-25T08:40:40.857Z,61.30
2023-05-25T08:41:40.820Z,61.58
2023-05-25T08:42:41.167Z,61.11
2023-05-25T08:43:40.735Z,61.20
2023-05-25T08:44:40.964Z,61.40
2023-05-25T08:45:44.430Z,61.17
2023-05-25T08:46:40.611Z,61.68
2023-05-25T08:47:40.640Z,62.35
2023-05-25T08:48:42.730Z,61.20
2023-05-25T08:49:40.763Z,61.43
2023-05-25T08:50:40.462Z,60.75
2023-05-25T08:51:40.602Z,59.60
2023-05-25T08:52:40.609Z,59.69
2023-05-25T08:53:40.333Z,59.53
2023-05-25T08:54:41.643Z,59.44
2023-05-25T08:55:40.254Z,58.76
2023-05-25T08:56:40.425Z,58.76
2023-05-25T08:57:40.380Z,59.17
2023-05-25T08:58:40.139Z,57.83
2023-05-25T08:59:40.097Z,57.92
2023-05-25T09:00:40.249Z,58.40
2023-05-25T09:01:40.074Z,58.02
2023-05-25T09:02:40.124Z,58.02
2023-05-25T09:03:40.214Z,58.40
2023-05-25T09:04:39.902Z,58.40
2023-05-25T09:05:39.930Z,58.12
2023-05-25T09:06:40.092Z,57.37
2023-05-25T09:07:39.773Z,57.37
2023-05-25T09:08:39.906Z,56.90
2023-05-25T09:09:39.811Z,56.60
2023-05-25T09:10:39.657Z,56.51
2023-05-25T09:11:41.602Z,55.83
2023-05-25T09:12:39.822Z,55.67
2023-05-25T09:13:39.561Z,55.87
2023-05-25T09:14:39.634Z,56.63
2023-05-25T09:15:39.764Z,56.82
2023-05-25T09:16:39.480Z,56.82
2023-05-25T09:17:39.828Z,56.35
2023-05-25T09:18:39.399Z,55.65
2023-05-25T09:19:39.496Z,56.60
2023-05-25T09:20:39.401Z,56.99
2023-05-25T09:21:39.231Z,56.54
2023-05-25T09:22:39.205Z,56.63
2023-05-25T09:23:39.338Z,56.73
2023-05-25T09:24:39.136Z,56.35
2023-05-25T09:25:39.321Z,55.96
2023-05-25T09:26:40.205Z,55.87
2023-05-25T09:27:39.035Z,56.35
2023-05-25T09:28:38.964Z,56.82
2023-05-25T09:29:39.155Z,55.87
2023-05-25T09:30:38.874Z,56.05
2023-05-25T09:31:38.997Z,55.96
2023-05-25T09:32:39.027Z,56.05
2023-05-25T09:33:38.756Z,56.18
2023-05-25T09:34:39.961Z,55.99
2023-05-25T09:35:38.696Z,56.76
2023-05-25T09:36:38.985Z,56.18
2023-05-25T09:37:38.941Z,55.51
2023-05-25T09:38:38.812Z,55.73
2023-05-25T09:39:38.631Z,54.38
2023-05-25T09:40:38.712Z,54.76
2023-05-25T09:41:38.448Z,54.83
2023-05-25T09:42:40.974Z,54.64
2023-05-25T09:43:41.953Z,54.35
2023-05-25T09:44:38.336Z,55.22
2023-05-25T09:45:38.543Z,55.51
2023-05-25T09:46:38.446Z,54.83
2023-05-25T09:47:38.291Z,53.96
2023-05-25T09:48:38.566Z,54.47
2023-05-25T09:49:38.152Z,54.47
2023-05-25T09:50:39.234Z,54.76
2023-05-25T09:51:38.060Z,54.40
2023-05-25T09:52:38.200Z,53.73
2023-05-25T09:53:37.987Z,53.53
2023-05-25T09:54:38.294Z,53.63
2023-05-25T09:55:52.059Z,53.53
2023-05-25T09:56:37.860Z,53.83
2023-05-25T09:57:37.865Z,54.50
2023-05-25T09:58:38.075Z,54.60
2023-05-25T09:59:38.084Z,53.89
2023-05-25T10:00:37.837Z,53.53
2023-05-25T10:01:37.876Z,53.73
2023-05-25T10:02:37.644Z,53.63
2023-05-25T10:03:40.021Z,53.73
2023-05-25T10:04:37.621Z,53.05
2023-05-25T10:05:37.665Z,53.73
2023-05-25T10:06:37.476Z,53.61
2023-05-25T10:07:37.471Z,54.38
2023-05-25T10:08:37.399Z,54.35
2023-05-25T10:09:37.493Z,55.31
2023-05-25T10:10:37.588Z,55.22
2023-05-25T10:11:37.526Z,55.79
2023-05-25T10:12:37.242Z,55.89
2023-05-25T10:13:37.198Z,55.79
2023-05-25T10:14:37.325Z,55.92
2023-05-25T10:15:37.449Z,55.82
2023-05-25T10:16:37.383Z,55.73
2023-05-25T10:17:37.074Z,55.54
2023-05-25T10:18:37.154Z,55.44
2023-05-25T10:19:37.002Z,55.63
2023-05-25T10:20:37.202Z,55.15
2023-05-25T10:21:36.940Z,54.86
2023-05-25T10:22:36.975Z,55.27
2023-05-25T10:23:36.834Z,55.36
2023-05-25T10:24:36.772Z,54.60
2023-05-25T10:25:37.075Z,55.08
2023-05-25T10:26:36.795Z,55.08
2023-05-25T10:27:36.682Z,55.18
2023-05-25T10:28:36.812Z,54.69
2023-05-25T10:29:36.583Z,54.60
2023-05-25T10:30:36.538Z,54.28
2023-05-25T10:31:36.606Z,54.60
2023-05-25T10:32:42.005Z,54.40
2023-05-25T10:33:36.415Z,54.31
2023-05-25T10:34:36.649Z,54.50
2023-05-25T10:35:46.830Z,53.83
2023-05-25T10:36:36.302Z,53.75
2023-05-25T10:37:37.488Z,53.85
2023-05-25T10:38:36.231Z,54.53
2023-05-25T10:39:36.489Z,54.43
2023-05-25T10:40:36.156Z,54.33
2023-05-25T10:41:36.112Z,54.17
2023-05-25T10:42:36.073Z,53.78
2023-05-25T10:43:36.058Z,53.30
2023-05-25T10:44:36.309Z,53.13
2023-05-25T10:45:35.953Z,53.03
2023-05-25T10:46:36.158Z,52.67
2023-05-25T10:47:35.946Z,52.48
2023-05-25T10:48:36.137Z,51.71
2023-05-25T10:49:35.814Z,52.39
2023-05-25T10:50:35.953Z,51.83
2023-05-25T10:51:35.792Z,51.06
2023-05-25T10:52:35.962Z,50.60
2023-05-25T10:53:35.667Z,50.50
2023-05-25T10:54:35.785Z,50.70
2023-05-25T10:55:35.572Z,50.48
2023-05-25T10:56:35.790Z,50.57
2023-05-25T10:57:35.861Z,50.57
2023-05-25T10:58:35.601Z,50.57
2023-05-25T10:59:35.462Z,50.57
2023-05-25T11:00:35.690Z,49.99
2023-05-25T11:01:35.403Z,50.67
2023-05-25T11:02:35.661Z,50.65
2023-05-25T11:03:35.480Z,50.57
2023-05-25T11:04:35.297Z,51.15
2023-05-25T11:05:35.217Z,50.79
2023-05-25T11:06:36.271Z,51.18
2023-05-25T11:07:35.157Z,50.79
2023-05-25T11:08:35.264Z,50.50
2023-05-25T11:09:35.073Z,50.02
2023-05-25T11:10:35.014Z,50.04
2023-05-25T11:11:35.131Z,49.17
2023-05-25T11:12:36.107Z,49.65
2023-05-25T11:13:35.586Z,49.46
2023-05-25T11:14:37.192Z,49.54
2023-05-25T11:15:34.842Z,49.44
2023-05-25T11:16:34.856Z,49.80
2023-05-25T11:17:34.950Z,50.35
2023-05-25T11:18:34.717Z,51.51
2023-05-25T11:19:34.936Z,52.39
2023-05-25T11:20:35.242Z,52.07
2023-05-25T11:21:34.649Z,52.84
2023-05-25T11:22:34.563Z,52.91
2023-05-25T11:23:34.755Z,52.72
2023-05-25T11:24:34.498Z,52.72
2023-05-25T11:25:35.994Z,53.88
2023-05-25T11:26:34.634Z,53.88
2023-05-25T11:27:34.443Z,53.69
2023-05-25T11:28:34.340Z,53.33
2023-05-25T11:29:35.412Z,53.59
2023-05-25T11:30:34.296Z,53.88
2023-05-25T11:31:39.073Z,53.88
2023-05-25T11:32:34.558Z,54.65
2023-05-25T11:33:34.154Z,54.27
2023-05-25T11:34:34.458Z,53.85
2023-05-25T11:35:34.097Z,54.33
2023-05-25T11:36:34.240Z,55.20
2023-05-25T11:37:34.006Z,54.62
2023-05-25T11:38:34.458Z,54.50
2023-05-25T11:39:33.953Z,55.01
2023-05-25T11:40:34.065Z,54.91
2023-05-25T11:41:33.846Z,54.94
2023-05-25T11:42:33.848Z,54.65
2023-05-25T11:43:35.112Z,54.36
2023-05-25T11:44:33.827Z,53.91
2023-05-25T11:45:33.729Z,53.64
2023-05-25T11:46:33.932Z,53.45
2023-05-25T11:47:35.096Z,52.70
2023-05-25T11:48:33.720Z,52.70
2023-05-25T11:49:33.545Z,52.70
2023-05-25T11:50:33.785Z,52.44
2023-05-25T11:51:33.470Z,51.86
2023-05-25T11:52:33.741Z,50.50
2023-05-25T11:53:34.421Z,51.18
2023-05-25T11:54:33.455Z,51.37
2023-05-25T11:55:33.325Z,51.18
2023-05-25T11:56:35.550Z,49.90
2023-05-25T11:57:33.465Z,51.44
2023-05-25T11:58:33.268Z,51.25
2023-05-25T11:59:33.275Z,51.44
2023-05-25T12:00:33.175Z,51.18
2023-05-25T12:01:34.325Z,51.08
2023-05-25T12:02:33.122Z,51.20
2023-05-25T12:03:33.272Z,50.24
2023-05-25T12:04:33.341Z,50.33
2023-05-25T12:05:33.127Z,49.27
2023-05-25T12:06:33.131Z,49.37
2023-05-25T12:07:32.884Z,49.27
2023-05-25T12:08:32.835Z,49.95
2023-05-25T12:09:32.881Z,49.56
2023-05-25T12:10:32.951Z,49.29
2023-05-25T12:11:32.731Z,50.24
2023-05-25T12:12:32.769Z,49.29
2023-05-25T12:13:32.722Z,49.37
2023-05-25T12:14:32.618Z,50.04
2023-05-25T12:15:32.746Z,49.97
2023-05-25T12:16:32.719Z,49.10
2023-05-25T12:17:32.534Z,49.29
2023-05-25T12:18:32.493Z,49.29
2023-05-25T12:19:32.434Z,49.29
2023-05-25T12:20:32.467Z,49.00
2023-05-25T12:21:33.535Z,49.90
2023-05-25T12:22:32.568Z,48.74
2023-05-25T12:23:33.351Z,48.54
2023-05-25T12:24:32.252Z,49.22
2023-05-25T12:25:46.030Z,49.12
2023-05-25T12:26:32.177Z,48.64
2023-05-25T12:27:32.362Z,48.54
2023-05-25T12:28:32.293Z,48.93
2023-05-25T12:29:33.194Z,49.32
2023-05-25T12:30:32.134Z,49.02
2023-05-25T12:31:32.081Z,48.74
2023-05-25T12:32:31.982Z,48.61
2023-05-25T12:33:31.989Z,49.19
2023-05-25T12:34:32.067Z,49.97
2023-05-25T12:35:32.005Z,49.29
2023-05-25T12:36:31.823Z,49.39
2023-05-25T12:37:31.786Z,50.07
2023-05-25T12:38:31.894Z,49.97
2023-05-25T12:39:31.723Z,49.68
2023-05-25T12:40:31.841Z,49.68
2023-05-25T12:41:31.894Z,49.58
2023-05-25T12:42:31.646Z,48.42
2023-05-25T12:43:31.566Z,48.83
2023-05-25T12:44:31.682Z,49.02
2023-05-25T12:45:31.489Z,48.64
2023-05-25T12:46:31.705Z,48.74
2023-05-25T12:47:31.439Z,49.22
2023-05-25T12:48:31.382Z,48.74
2023-05-25T12:49:31.352Z,48.18
2023-05-25T12:50:33.030Z,48.57
2023-05-25T12:51:31.279Z,48.57
2023-05-25T12:52:32.558Z,48.95
2023-05-25T12:53:31.354Z,48.76
2023-05-25T12:54:31.161Z,48.20
2023-05-25T12:55:31.344Z,48.00